createdAt,value
2023-03-04T00:01:35.905Z,39.02
2023-03-04T00:04:03.309Z,38.94
2023-03-04T00:06:30.470Z,39.17
2023-03-04T00:08:57.612Z,39.58
2023-03-04T00:11:25.030Z,39.93
2023-03-04T00:13:52.153Z,39.12
2023-03-04T00:16:19.382Z,39.55
2023-03-04T00:18:46.814Z,39.54
2023-03-04T00:21:13.962Z,38.81
2023-03-04T00:23:41.967Z,38.69
2023-03-04T00:26:09.709Z,38.09
2023-03-04T00:28:36.969Z,38.81
2023-03-04T00:31:04.151Z,38.04
2023-03-04T00:33:31.617Z,38.08
2023-03-04T00:35:59.578Z,37.61
2023-03-04T00:38:27.021Z,38.15
2023-03-04T00:40:54.617Z,37.38
2023-03-04T00:43:21.877Z,37.39
2023-03-04T00:45:49.197Z,37.28
2023-03-04T00:48:16.679Z,37.79
2023-03-04T00:50:44.302Z,37.34
2023-03-04T00:53:11.480Z,37.45
2023-03-04T00:55:38.922Z,36.92
2023-03-04T00:58:06.072Z,36.99
2023-03-04T01:00:33.226Z,36.17
2023-03-04T01:03:00.612Z,36.36
2023-03-04T01:05:27.777Z,36.09
2023-03-04T01:07:54.919Z,36.18
2023-03-04T01:10:22.326Z,36.14
2023-03-04T01:12:49.478Z,35.72
2023-03-04T01:15:16.638Z,35.39
2023-03-04T01:17:44.241Z,35.35
2023-03-04T01:20:11.570Z,35.21
2023-03-04T01:22:38.744Z,35.69
2023-03-04T01:25:06.422Z,35.67
2023-03-04T01:27:33.592Z,35.58
2023-03-04T01:30:00.805Z,35.47
2023-03-04T01:32:29.927Z,37.19
2023-03-04T01:34:57.153Z,35.95
2023-03-04T01:37:24.292Z,35.23
2023-03-04T01:39:51.749Z,34.99
2023-03-04T01:42:20.020Z,35.11
2023-03-04T01:44:47.196Z,35.22
2023-03-04T01:47:14.755Z,34.70
2023-03-04T01:49:41.959Z,35.07
2023-03-04T01:52:12.467Z,35.36
2023-03-04T01:54:40.252Z,35.13
2023-03-04T01:57:13.450Z,35.17
2023-03-04T01:59:40.851Z,34.89
2023-03-04T02:02:08.000Z,34.54
2023-03-04T02:04:36.704Z,34.96
2023-03-04T02:07:03.965Z,34.80
2023-03-04T02:09:31.516Z,34.81
2023-03-04T02:11:58.934Z,34.91
2023-03-04T02:14:26.399Z,34.55
2023-03-04T02:16:53.572Z,34.82
2023-03-04T02:19:39.564Z,35.16
2023-03-04T02:22:06.963Z,35.20
2023-03-04T02:24:44.089Z,34.85
2023-03-04T02:27:11.773Z,34.87
2023-03-04T02:29:39.112Z,35.39
2023-03-04T02:32:06.550Z,34.70
2023-03-04T02:34:34.570Z,34.80
2023-03-04T02:37:01.938Z,34.79
2023-03-04T02:39:36.390Z,34.88
2023-03-04T02:42:04.148Z,35.67
2023-03-04T02:44:34.985Z,34.88
2023-03-04T02:47:02.408Z,36.88
2023-03-04T02:49:31.386Z,34.76
2023-03-04T02:51:59.693Z,34.85
2023-03-04T02:54:27.012Z,34.26
2023-03-04T02:56:55.659Z,34.86
2023-03-04T02:59:23.324Z,34.09
2023-03-04T03:01:50.731Z,33.66
2023-03-04T03:04:18.510Z,34.31
2023-03-04T03:06:46.154Z,35.02
2023-03-04T03:09:13.320Z,34.93
2023-03-04T03:11:40.744Z,35.47
2023-03-04T03:14:08.894Z,34.20
2023-03-04T03:16:36.118Z,35.08
2023-03-04T03:19:04.793Z,34.82
2023-03-04T03:21:31.976Z,34.03
2023-03-04T03:23:59.177Z,34.95
2023-03-04T03:26:26.660Z,35.14
2023-03-04T03:28:53.799Z,34.01
2023-03-04T03:31:21.428Z,34.68
2023-03-04T03:33:48.879Z,35.33
2023-03-04T03:36:16.253Z,35.82
2023-03-04T03:38:43.464Z,35.81
2023-03-04T03:41:10.905Z,34.70
2023-03-04T03:43:38.038Z,34.35
2023-03-04T03:46:05.399Z,34.46
2023-03-04T03:48:32.927Z,35.60
2023-03-04T03:51:00.054Z,34.01
2023-03-04T03:53:27.222Z,34.11
2023-03-04T03:55:54.779Z,34.40
2023-03-04T03:58:23.208Z,34.69
2023-03-04T04:00:50.494Z,34.47
2023-03-04T04:03:17.916Z,34.76
2023-03-04T04:05:45.042Z,34.76
2023-03-04T04:08:17.981Z,36.12
2023-03-04T04:10:45.433Z,35.00
2023-03-04T04:13:12.718Z,36.53
2023-03-04T04:15:39.892Z,35.97
2023-03-04T04:18:07.320Z,36.97
2023-03-04T04:20:34.627Z,36.95
2023-03-04T04:23:02.154Z,36.90
2023-03-04T04:25:29.704Z,36.78
2023-03-04T04:27:56.848Z,37.24
2023-03-04T04:30:24.115Z,37.35
2023-03-04T04:32:51.720Z,37.96
2023-03-04T04:35:19.008Z,37.60
2023-03-04T04:37:46.178Z,38.32
2023-03-04T04:40:13.671Z,38.09
2023-03-04T04:42:40.810Z,38.74
2023-03-04T04:45:08.227Z,38.67
2023-03-04T04:47:35.663Z,38.43
2023-03-04T04:50:02.851Z,39.22
2023-03-04T04:52:30.055Z,40.14
2023-03-04T04:54:57.645Z,40.28
2023-03-04T04:57:24.847Z,40.11
2023-03-04T04:59:52.005Z,39.93
2023-03-04T05:02:19.406Z,40.36
2023-03-04T05:04:46.568Z,40.72
2023-03-04T05:07:13.722Z,40.82
2023-03-04T05:09:41.227Z,41.54
2023-03-04T05:12:08.368Z,44.43
2023-03-04T05:14:35.735Z,43.42
2023-03-04T05:17:03.439Z,43.19
2023-03-04T05:19:30.585Z,44.30
2023-03-04T05:21:57.751Z,42.31
2023-03-04T05:24:25.419Z,42.34
2023-03-04T05:26:52.542Z,42.35
2023-03-04T05:29:19.741Z,42.40
2023-03-04T05:31:47.161Z,44.63
2023-03-04T05:34:14.267Z,45.92
2023-03-04T05:36:41.428Z,43.94
2023-03-04T05:39:08.903Z,42.74
2023-03-04T05:41:36.035Z,43.65
2023-03-04T05:44:03.154Z,42.98
2023-03-04T05:46:33.378Z,43.81
2023-03-04T05:49:00.751Z,43.43
2023-03-04T05:51:27.910Z,42.28
2023-03-04T05:53:55.343Z,43.82
2023-03-04T05:56:22.626Z,42.11
2023-03-04T05:58:49.798Z,42.45
2023-03-04T06:01:17.272Z,41.64
2023-03-04T06:03:45.028Z,42.78
2023-03-04T06:06:12.249Z,41.30
2023-03-04T06:08:39.408Z,40.93
2023-03-04T06:11:06.824Z,40.74
2023-03-04T06:13:34.109Z,41.64
2023-03-04T06:16:01.392Z,43.51
2023-03-04T06:18:29.112Z,42.42
2023-03-04T06:20:59.887Z,41.21
2023-03-04T06:23:27.270Z,41.82
2023-03-04T06:25:55.089Z,40.52
2023-03-04T06:28:22.319Z,39.48
2023-03-04T06:30:51.680Z,38.70
2023-03-04T06:33:19.431Z,38.38
2023-03-04T06:35:46.680Z,38.85
2023-03-04T06:38:14.103Z,38.25
2023-03-04T06:40:41.567Z,39.57
2023-03-04T06:43:08.713Z,41.41
2023-03-04T06:45:35.870Z,40.28
2023-03-04T06:48:03.424Z,39.20
2023-03-04T06:50:30.542Z,38.41
2023-03-04T06:52:57.824Z,35.68
2023-03-04T06:55:25.274Z,34.20
2023-03-04T06:57:52.439Z,34.90
2023-03-04T07:00:19.742Z,36.33
2023-03-04T07:02:47.134Z,37.05
2023-03-04T07:05:14.273Z,38.08
2023-03-04T07:07:41.451Z,38.41
2023-03-04T07:10:10.187Z,39.58
2023-03-04T07:12:37.388Z,36.87
2023-03-04T07:15:04.743Z,38.09
2023-03-04T07:17:32.175Z,39.17
2023-03-04T07:19:59.306Z,38.73
2023-03-04T07:22:26.487Z,39.77
2023-03-04T07:24:53.989Z,38.01
2023-03-04T07:27:21.142Z,38.25
2023-03-04T07:29:48.298Z,38.94
2023-03-04T07:32:15.758Z,38.91
2023-03-04T07:34:42.977Z,38.35
2023-03-04T07:37:10.125Z,38.83
2023-03-04T07:39:37.569Z,38.67
2023-03-04T07:42:04.709Z,39.48
2023-03-04T07:44:31.880Z,39.29
2023-03-04T07:46:59.378Z,38.51
2023-03-04T07:49:26.540Z,38.38
2023-03-04T07:51:53.680Z,37.77
2023-03-04T07:54:21.115Z,34.70
2023-03-04T07:56:48.281Z,32.50
2023-03-04T07:59:15.443Z,29.74
2023-03-04T08:01:44.683Z,28.56
2023-03-04T08:04:12.992Z,30.09
2023-03-04T08:06:40.612Z,30.02
2023-03-04T08:09:08.117Z,30.20
2023-03-04T08:11:36.504Z,30.73
2023-03-04T08:14:03.989Z,30.75
2023-03-04T08:16:31.170Z,30.59
2023-03-04T08:18:59.472Z,31.16
2023-03-04T08:21:26.889Z,31.84
2023-03-04T08:23:54.343Z,31.94
2023-03-04T08:26:29.096Z,32.77
2023-03-04T08:28:56.887Z,32.67
2023-03-04T08:31:24.520Z,33.55
2023-03-04T08:33:52.989Z,34.31
2023-03-04T08:36:20.224Z,35.11
2023-03-04T08:38:47.706Z,34.05
2023-03-04T08:41:15.554Z,30.82
2023-03-04T08:43:44.240Z,31.02
2023-03-04T08:46:11.759Z,31.46
2023-03-04T08:48:39.016Z,31.17
2023-03-04T08:51:09.719Z,31.43
2023-03-04T08:53:37.574Z,31.83
2023-03-04T08:56:05.520Z,31.71
2023-03-04T08:58:32.732Z,30.41
2023-03-04T09:01:00.827Z,29.47
2023-03-04T09:03:28.054Z,28.53
2023-03-04T09:05:55.323Z,26.92
2023-03-04T09:08:22.880Z,25.07
2023-03-04T09:10:52.122Z,25.72
2023-03-04T09:13:19.347Z,25.84
2023-03-04T09:15:47.644Z,28.46
2023-03-04T09:18:14.928Z,27.89
2023-03-04T09:20:42.064Z,28.13
2023-03-04T09:23:09.747Z,28.29
2023-03-04T09:25:37.384Z,27.67
2023-03-04T09:28:04.896Z,27.99
2023-03-04T09:30:32.682Z,27.73
2023-03-04T09:32:59.826Z,26.85
2023-03-04T09:35:27.135Z,26.96
2023-03-04T09:37:54.557Z,27.94
2023-03-04T09:40:23.378Z,28.10
2023-03-04T09:42:52.091Z,26.82
2023-03-04T09:45:21.186Z,27.08
2023-03-04T09:47:48.731Z,27.64
2023-03-04T09:50:15.902Z,27.77
2023-03-04T09:53:02.344Z,27.33
2023-03-04T09:55:34.449Z,27.66
2023-03-04T09:58:07.454Z,26.47
2023-03-04T10:00:53.452Z,27.76
2023-03-04T10:03:39.489Z,26.27
2023-03-04T10:06:07.950Z,26.39
2023-03-04T10:08:38.400Z,26.63
2023-03-04T10:11:13.486Z,26.06
2023-03-04T10:13:46.961Z,26.76
2023-03-04T10:16:14.993Z,26.87
2023-03-04T10:18:56.683Z,26.87
2023-03-04T10:21:31.219Z,27.09
2023-03-04T10:24:00.537Z,26.70
2023-03-04T10:26:29.339Z,26.63
2023-03-04T10:28:56.450Z,27.07
2023-03-04T10:31:37.222Z,27.34
2023-03-04T10:34:05.101Z,27.55
2023-03-04T10:36:32.455Z,28.09
2023-03-04T10:38:59.541Z,27.39
2023-03-04T10:41:27.818Z,27.97
2023-03-04T10:44:21.288Z,27.05
2023-03-04T10:46:48.930Z,26.91
2023-03-04T10:49:17.365Z,27.34
2023-03-04T10:51:45.417Z,27.15
2023-03-04T10:54:18.776Z,26.80
2023-03-04T10:56:59.407Z,27.46
2023-03-04T10:59:46.261Z,27.26
2023-03-04T11:02:15.253Z,27.28
2023-03-04T11:04:42.419Z,26.77
2023-03-04T11:07:10.762Z,26.80
2023-03-04T11:09:40.159Z,28.06
2023-03-04T11:12:14.490Z,26.89
2023-03-04T11:14:45.953Z,27.09
2023-03-04T11:17:15.872Z,26.22
2023-03-04T11:19:43.294Z,26.88
2023-03-04T11:22:10.656Z,26.26
2023-03-04T11:24:37.847Z,26.56
2023-03-04T11:27:05.253Z,26.92
2023-03-04T11:29:37.140Z,26.51
2023-03-04T11:32:24.912Z,26.83
2023-03-04T11:34:54.594Z,27.25
2023-03-04T11:37:28.074Z,27.54
2023-03-04T11:39:57.501Z,28.15
2023-03-04T11:42:43.630Z,27.23
2023-03-04T11:45:27.749Z,28.12
2023-03-04T11:48:02.376Z,28.58
2023-03-04T11:50:30.932Z,28.73
2023-03-04T11:53:02.183Z,28.71
2023-03-04T11:55:40.866Z,28.43
2023-03-04T11:58:08.267Z,28.53
2023-03-04T12:00:39.164Z,28.03
2023-03-04T12:03:13.183Z,28.12
2023-03-04T12:05:52.651Z,29.03
2023-03-04T12:08:22.093Z,29.14
2023-03-04T12:10:51.750Z,28.25
2023-03-04T12:13:31.127Z,28.99
2023-03-04T12:16:01.776Z,29.48
2023-03-04T12:18:47.328Z,30.33
2023-03-04T12:21:33.337Z,29.74
2023-03-04T12:24:09.901Z,30.78
2023-03-04T12:26:46.347Z,30.03
2023-03-04T12:29:15.925Z,30.22
2023-03-04T12:31:43.746Z,30.23
2023-03-04T12:34:29.848Z,30.45
2023-03-04T12:37:05.294Z,30.32
2023-03-04T12:39:33.073Z,29.21
2023-03-04T12:42:09.506Z,30.02
2023-03-04T12:44:39.368Z,30.52
2023-03-04T12:47:25.509Z,30.22
2023-03-04T12:49:59.445Z,30.28
2023-03-04T12:52:33.172Z,30.75
2023-03-04T12:55:02.966Z,31.19
2023-03-04T12:57:31.768Z,30.95
2023-03-04T13:00:02.047Z,30.55
2023-03-04T13:02:48.182Z,30.96
2023-03-04T13:05:34.750Z,30.99
2023-03-04T13:08:24.876Z,31.23
2023-03-04T13:10:52.425Z,30.72
2023-03-04T13:13:38.362Z,31.51
2023-03-04T13:16:11.798Z,30.41
2023-03-04T13:18:39.613Z,30.62
2023-03-04T13:21:24.008Z,30.60
2023-03-04T13:23:51.748Z,29.20
2023-03-04T13:26:29.403Z,29.29
2023-03-04T13:29:08.808Z,29.20
2023-03-04T13:31:56.328Z,28.47
2023-03-04T13:34:43.745Z,28.95
2023-03-04T13:37:26.287Z,29.26
2023-03-04T13:40:14.354Z,28.33
2023-03-04T13:42:42.758Z,27.52
2023-03-04T13:45:28.234Z,26.85
2023-03-04T13:47:55.682Z,26.66
2023-03-04T13:50:23.945Z,26.32
2023-03-04T13:52:51.177Z,27.12
2023-03-04T13:55:35.751Z,26.82
2023-03-04T13:58:10.313Z,27.00
2023-03-04T14:00:37.721Z,27.85
2023-03-04T14:03:14.787Z,27.42
2023-03-04T14:05:41.965Z,27.01
2023-03-04T14:08:19.300Z,27.84
2023-03-04T14:10:54.456Z,27.15
2023-03-04T14:13:22.288Z,26.77
2023-03-04T14:15:56.767Z,27.13
2023-03-04T14:18:28.157Z,26.34
2023-03-04T14:20:58.985Z,26.66
2023-03-04T14:23:30.481Z,27.57
2023-03-04T14:26:23.844Z,27.50
2023-03-04T14:28:52.251Z,27.58
2023-03-04T14:31:23.126Z,26.40
2023-03-04T14:33:51.556Z,26.39
2023-03-04T14:36:20.227Z,26.22
2023-03-04T14:38:52.418Z,25.51
2023-03-04T14:41:21.629Z,26.14
2023-03-04T14:43:54.617Z,26.65
2023-03-04T14:46:22.060Z,26.30
2023-03-04T14:48:50.110Z,26.19
2023-03-04T14:51:28.558Z,26.12
2023-03-04T14:53:56.496Z,26.11
2023-03-04T14:56:27.913Z,26.50
2023-03-04T14:58:57.126Z,26.36
2023-03-04T15:01:36.817Z,26.79
2023-03-04T15:04:08.478Z,25.69
2023-03-04T15:06:37.275Z,25.78
2023-03-04T15:09:05.469Z,26.34
2023-03-04T15:11:46.082Z,26.42
2023-03-04T15:14:32.135Z,26.89
2023-03-04T15:16:59.300Z,27.26
2023-03-04T15:19:29.055Z,28.43
2023-03-04T15:22:03.054Z,28.79
2023-03-04T15:24:30.493Z,29.83
2023-03-04T15:26:57.596Z,29.65
2023-03-04T15:29:24.749Z,30.15
2023-03-04T15:31:52.236Z,30.54
2023-03-04T15:34:20.139Z,31.41
2023-03-04T15:36:47.917Z,31.45
2023-03-04T15:39:16.322Z,32.11
2023-03-04T15:41:43.495Z,31.80
2023-03-04T15:44:12.328Z,32.23
2023-03-04T15:46:39.791Z,32.24
2023-03-04T15:49:06.959Z,33.02
2023-03-04T15:51:34.129Z,33.48
2023-03-04T15:54:01.617Z,32.76
2023-03-04T15:56:31.856Z,33.54
2023-03-04T15:58:59.769Z,33.25
2023-03-04T16:01:27.321Z,32.77
2023-03-04T16:03:54.919Z,33.12
2023-03-04T16:06:23.463Z,32.88
2023-03-04T16:08:50.799Z,32.85
2023-03-04T16:11:25.794Z,32.84
2023-03-04T16:13:53.094Z,32.31
2023-03-04T16:16:20.711Z,33.07
2023-03-04T16:18:48.138Z,33.25
2023-03-04T16:21:16.932Z,33.91
2023-03-04T16:23:45.434Z,34.53
2023-03-04T16:26:17.318Z,34.56
2023-03-04T16:28:45.075Z,34.35
2023-03-04T16:31:13.240Z,34.36
2023-03-04T16:33:40.552Z,34.11
2023-03-04T16:36:21.538Z,34.29
2023-03-04T16:38:48.997Z,34.37
2023-03-04T16:41:17.160Z,33.94
2023-03-04T16:43:44.420Z,34.26
2023-03-04T16:46:12.396Z,34.66
2023-03-04T16:48:40.458Z,34.52
2023-03-04T16:51:13.025Z,34.02
2023-03-04T16:53:41.194Z,34.84
2023-03-04T16:56:19.181Z,33.86
2023-03-04T16:58:47.303Z,34.49
2023-03-04T17:01:18.324Z,34.34
2023-03-04T17:03:46.109Z,33.93
2023-03-04T17:06:14.092Z,34.63
2023-03-04T17:08:41.726Z,33.87
2023-03-04T17:11:11.598Z,33.98
2023-03-04T17:13:39.466Z,34.81
2023-03-04T17:16:07.019Z,34.54
2023-03-04T17:18:34.484Z,34.50
2023-03-04T17:21:03.367Z,34.80
2023-03-04T17:23:30.929Z,34.69
2023-03-04T17:25:59.006Z,35.06
2023-03-04T17:28:27.068Z,34.67
2023-03-04T17:30:54.707Z,33.90
2023-03-04T17:33:22.719Z,34.44
2023-03-04T17:35:50.743Z,34.89
2023-03-04T17:38:18.555Z,34.24
2023-03-04T17:40:46.335Z,35.38
2023-03-04T17:43:14.188Z,33.75
2023-03-04T17:45:42.134Z,35.66
2023-03-04T17:48:15.345Z,34.60
2023-03-04T17:50:52.620Z,36.14
2023-03-04T17:53:20.343Z,34.44
2023-03-04T17:55:49.125Z,34.84
2023-03-04T17:58:16.716Z,35.05
2023-03-04T18:00:44.470Z,35.41
2023-03-04T18:03:13.026Z,35.32
2023-03-04T18:05:40.788Z,35.86
2023-03-04T18:08:08.490Z,35.36
2023-03-04T18:10:37.704Z,36.20
2023-03-04T18:13:05.541Z,35.11
2023-03-04T18:15:33.187Z,36.41
2023-03-04T18:18:01.269Z,37.42
2023-03-04T18:20:28.896Z,38.24
2023-03-04T18:22:58.639Z,38.35
2023-03-04T18:25:26.820Z,40.97
2023-03-04T18:27:54.389Z,39.69
2023-03-04T18:30:27.212Z,39.53
2023-03-04T18:32:56.417Z,39.97
2023-03-04T18:35:24.080Z,39.70
2023-03-04T18:37:51.862Z,40.10
2023-03-04T18:40:21.326Z,40.24
2023-03-04T18:42:49.008Z,40.78
2023-03-04T18:45:17.338Z,40.09
2023-03-04T18:47:46.066Z,41.82
2023-03-04T18:50:13.730Z,41.02
2023-03-04T18:52:41.655Z,41.11
2023-03-04T18:55:11.207Z,42.30
2023-03-04T18:57:43.133Z,40.91
2023-03-04T19:00:11.644Z,41.60
2023-03-04T19:02:39.484Z,42.17
2023-03-04T19:05:11.406Z,42.33
2023-03-04T19:07:39.365Z,43.39
2023-03-04T19:10:07.305Z,42.99
2023-03-04T19:12:34.970Z,41.42
2023-03-04T19:15:05.792Z,43.64
2023-03-04T19:17:33.621Z,42.72
2023-03-04T19:20:01.423Z,42.34
2023-03-04T19:22:29.460Z,42.30
2023-03-04T19:24:57.403Z,43.17
2023-03-04T19:27:25.101Z,44.82
2023-03-04T19:29:53.299Z,44.57
2023-03-04T19:32:21.229Z,44.41
2023-03-04T19:34:49.088Z,44.52
2023-03-04T19:37:17.185Z,46.57
2023-03-04T19:39:46.045Z,45.90
2023-03-04T19:42:13.789Z,45.27
2023-03-04T19:44:44.503Z,45.77
2023-03-04T19:47:12.690Z,45.54
2023-03-04T19:49:41.639Z,45.34
2023-03-04T19:52:09.547Z,44.45
2023-03-04T19:54:37.325Z,42.64
2023-03-04T19:57:04.926Z,44.11
2023-03-04T19:59:33.070Z,43.12
2023-03-04T20:02:01.514Z,42.11
2023-03-04T20:04:29.640Z,40.86
2023-03-04T20:06:57.144Z,41.12
2023-03-04T20:09:24.573Z,40.20
2023-03-04T20:11:58.117Z,41.25
2023-03-04T20:14:28.794Z,42.42
2023-03-04T20:17:03.061Z,41.43
2023-03-04T20:19:30.673Z,41.23
2023-03-04T20:21:58.342Z,40.54
2023-03-04T20:24:25.934Z,44.09
2023-03-04T20:26:53.089Z,43.12
2023-03-04T20:29:20.741Z,40.44
2023-03-04T20:31:48.558Z,39.89
2023-03-04T20:34:15.775Z,39.85
2023-03-04T20:36:43.592Z,39.35
2023-03-04T20:39:26.882Z,39.10
2023-03-04T20:41:55.843Z,39.91
2023-03-04T20:44:23.281Z,39.42
2023-03-04T20:46:50.673Z,39.09
2023-03-04T20:49:27.742Z,38.57
2023-03-04T20:52:02.995Z,38.65
2023-03-04T20:54:30.917Z,43.13
2023-03-04T20:56:58.220Z,41.42
2023-03-04T20:59:25.516Z,39.27
2023-03-04T21:01:53.429Z,38.77
2023-03-04T21:04:20.903Z,39.20
2023-03-04T21:06:48.433Z,39.02
2023-03-04T21:09:16.814Z,39.63
2023-03-04T21:11:44.077Z,39.35
2023-03-04T21:14:12.667Z,39.04
2023-03-04T21:16:40.776Z,38.30
2023-03-04T21:19:10.720Z,38.30
2023-03-04T21:21:37.929Z,40.45
2023-03-04T21:24:05.505Z,41.61
2023-03-04T21:26:32.690Z,39.48
2023-03-04T21:28:59.871Z,39.23
2023-03-04T21:31:29.070Z,39.58
2023-03-04T21:33:56.448Z,42.47
2023-03-04T21:36:23.770Z,44.38
2023-03-04T21:38:51.294Z,43.23
2023-03-04T21:41:20.194Z,41.75
2023-03-04T21:43:48.600Z,43.67
2023-03-04T21:46:16.592Z,40.89
2023-03-04T21:48:44.855Z,41.78
2023-03-04T21:51:12.520Z,43.00
2023-03-04T21:53:40.098Z,41.33
2023-03-04T21:56:07.227Z,44.00
2023-03-04T21:58:35.335Z,41.96
2023-03-04T22:01:08.984Z,43.08
2023-03-04T22:03:36.509Z,43.02
2023-03-04T22:06:04.863Z,41.89
2023-03-04T22:08:32.172Z,41.51
2023-03-04T22:11:02.217Z,41.93
2023-03-04T22:13:29.334Z,41.80
2023-03-04T22:15:56.956Z,43.57
2023-03-04T22:18:24.728Z,43.23
2023-03-04T22:20:59.487Z,45.54
2023-03-04T22:23:26.965Z,43.72
2023-03-04T22:25:54.256Z,41.88
2023-03-04T22:28:21.767Z,42.37
2023-03-04T22:30:49.177Z,42.73
2023-03-04T22:33:16.300Z,42.87
2023-03-04T22:35:44.381Z,42.23
2023-03-04T22:38:11.876Z,42.39
2023-03-04T22:40:39.048Z,43.23
2023-03-04T22:43:06.173Z,42.66
2023-03-04T22:45:33.626Z,42.96
2023-03-04T22:48:00.875Z,42.65
2023-03-04T22:50:28.115Z,43.83
2023-03-04T22:52:55.516Z,42.80
2023-03-04T22:55:22.782Z,43.10
2023-03-04T22:57:49.968Z,44.99
2023-03-04T23:00:19.329Z,44.43
2023-03-04T23:02:46.454Z,42.20
2023-03-04T23:05:13.909Z,41.54
2023-03-04T23:07:41.382Z,42.76
2023-03-04T23:10:13.333Z,43.17
2023-03-04T23:12:40.733Z,42.07
2023-03-04T23:15:08.226Z,43.56
2023-03-04T23:17:35.413Z,43.67
2023-03-04T23:20:03.391Z,41.42
2023-03-04T23:22:30.712Z,41.76
2023-03-04T23:24:57.898Z,41.85
2023-03-04T23:27:25.446Z,42.05
2023-03-04T23:29:52.615Z,41.84
2023-03-04T23:32:19.792Z,43.49
2023-03-04T23:34:53.010Z,43.14
2023-03-04T23:37:20.967Z,42.93
2023-03-04T23:39:48.692Z,44.34
2023-03-04T23:42:15.919Z,44.87
2023-03-04T23:44:43.067Z,46.47
2023-03-04T23:47:10.508Z,45.13
2023-03-04T23:49:37.682Z,47.25
2023-03-04T23:52:04.987Z,45.42
2023-03-04T23:54:32.438Z,45.50
2023-03-04T23:57:00.475Z,46.52
2023-03-04T23:59:28.359Z,44.39
